Live Course: Trail du Velan 15 Km


Classement live (sans garantie) Trail du Velan 2018 Trail du Velan 15 Km
Date: 28.07.2018 Organisateur: Trail du Velan  
Déniv+: 900 Km: 15.000 Nombre de participants: 100
Déniv-+: 900 Temps: Beau Température: 21

Refresh Refresh

Auto refresh interval:

Recherche par dossard ou nom:: Légende statut: = En course, = Abandon (DNF), = Arrivé, = Pas parti (DNS).

Afficher uniquement la catégorie: Toutes catégories Dames Espoirs D Espoirs H Hommes Juniors D Juniors H Vété 1 D Vété 1 H Vété 2 D Vété 2 H Vété 3 H
Retour (séléction de la course)

Scratch Cat√©gorie Pos.cat. Dos. Nom pr√©nom Club / Ville Ann√©e Challand Arriv√©e Contr√īle Temps Ecart Statut
1 V√©t√© 1 H 1 224 Dischl Beno√ģt GRIMISUAT     01:29:33 5¬†¬†¬†¬†¬† 01:29:33  
2 Espoirs H 1 225 Marquis Quentin LIDDES     01:32:42 5¬†¬†¬†¬†¬† 01:32:42 00:03:09
3 Hommes 1 235 Lattion Damien LIDDES     01:33:36 5¬†¬†¬†¬†¬† 01:33:36 00:04:03
4 Hommes 2 288 Buchard Arnaud TRAILEURS DE L'ARDEV     01:33:36 5¬†¬†¬†¬†¬† 01:33:36 00:04:03
5 Hommes 3 234 Marmy J√©r√īme CSPL     01:36:57 5¬†¬†¬†¬†¬† 01:36:57 00:07:24
6 Hommes 4 250 Fournier S√©bastien MARTIGNY     01:37:26 5¬†¬†¬†¬†¬† 01:37:26 00:07:53
7 Espoirs H 2 290 Corthay Denis CRP PAST     01:39:09 5¬†¬†¬†¬†¬† 01:39:09 00:09:36
8 Hommes 5 247 Putallaz Robin ROBIN PUTALLAZ     01:40:04 5¬†¬†¬†¬†¬† 01:40:04 00:10:31
9 Hommes 6 280 Fusay Christophe SC VELAN     01:40:39 5¬†¬†¬†¬†¬† 01:40:39 00:11:06
10 Juniors H 1 253 Russiello Lucas LA FOULEE SAILLONINTZE     01:42:46 5¬†¬†¬†¬†¬† 01:42:46 00:13:13
11 Espoirs H 3 299 Menoud Julien VEX 2003   01:44:26 5¬†¬†¬†¬†¬† 01:44:26 00:14:53
12 Espoirs H 4 262 Gross Maxime CRP PAST     01:46:07 5¬†¬†¬†¬†¬† 01:46:07 00:16:34
13 V√©t√© 1 H 2 277 Chardon Joachim TEAM-HERENS     01:48:59 5¬†¬†¬†¬†¬† 01:48:59 00:19:26
14 V√©t√© 1 H 3 249 Tripodi Gianluca TRM TEAM     01:52:18 5¬†¬†¬†¬†¬† 01:52:18 00:22:45
15 Hommes 7 273 Grandchamp David GARAGE DE LA DOUANE SARL     01:52:54 5¬†¬†¬†¬†¬† 01:52:54 00:23:21
16 V√©t√© 1 D 1 297 Machot Laurence CHOUEX 1972   01:53:21 5¬†¬†¬†¬†¬† 01:53:21 00:23:48
17 Juniors D 1 254 Cappi Isaline TRIENT     01:53:47 5¬†¬†¬†¬†¬† 01:53:47 00:24:14
18 Dames 1 214 Vouillamoz Laurine ARBUSIGNY     01:54:09 5¬†¬†¬†¬†¬† 01:54:09 00:24:36
19 V√©t√© 1 H 4 215 Rey Franck ARBUSIGNY     01:55:07 5¬†¬†¬†¬†¬† 01:55:07 00:25:34
20 V√©t√© 1 H 5 298 Menoud S√©bastien VEX 1970   01:56:29 5¬†¬†¬†¬†¬† 01:56:29 00:26:56
21 Juniors D 2 257 Giroud Ad√®le TEAM PELLISSIER SPORT     01:56:34 5¬†¬†¬†¬†¬† 01:56:34 00:27:01
22 V√©t√© 2 H 1 251 Mabillard Pascal LA FOULEE SAILLONINTZE     02:00:16 5¬†¬†¬†¬†¬† 02:00:16 00:30:43
23 Hommes 8 204 Mlynarczyk Krzysztof GENEVE     02:01:22 5¬†¬†¬†¬†¬† 02:01:22 00:31:49
24 V√©t√© 1 H 6 263 Eichenberger Fran√ßois COLLOMBEY     02:02:20 5¬†¬†¬†¬†¬† 02:02:20 00:32:47
25 Hommes 9 264 Boutet Julien CHARRAT     02:02:20 5¬†¬†¬†¬†¬† 02:02:20 00:32:47
26 Espoirs D 1 241 Copt Rose ORSIERES     02:02:59 5¬†¬†¬†¬†¬† 02:02:59 00:33:26
27 Hommes 10 248 Castella Arnaud MARTIGNY-CROIX     02:03:09 5¬†¬†¬†¬†¬† 02:03:09 00:33:36
28 Dames 2 211 Hayetine Celia SAINT GERVAIS LES BAINS     02:03:21 5¬†¬†¬†¬†¬† 02:03:21 00:33:48
29 Dames 3 269 Rey Mathilde SAXON     02:03:27 5¬†¬†¬†¬†¬† 02:03:27 00:33:54
30 V√©t√© 1 H 7 252 Gonzalez Javier VERSEGERES     02:03:52 5¬†¬†¬†¬†¬† 02:03:52 00:34:19
31 Hommes 11 261 Fischer Sandro SION     02:03:57 5¬†¬†¬†¬†¬† 02:03:57 00:34:24
32 V√©t√© 1 H 8 270 Lattion Samuel STARPELLET.CH     02:04:39 5¬†¬†¬†¬†¬† 02:04:39 00:35:06
33 Hommes 12 228 Charrex David LEYTRON     02:05:02 5¬†¬†¬†¬†¬† 02:05:02 00:35:29
34 Juniors H 2 231 Charrex T√©o LEYTRON     02:05:02 5¬†¬†¬†¬†¬† 02:05:02 00:35:29
35 Hommes 13 268 Latham Martin MARTIGNY     02:05:54 5¬†¬†¬†¬†¬† 02:05:54 00:36:21
36 Espoirs D 2 294 Sarrasin Mathilde LES VOUIPES     02:06:15 5¬†¬†¬†¬†¬† 02:06:15 00:36:42
37 Hommes 14 291 Jacquier Florian TEAM CAPTAIN     02:06:58 5¬†¬†¬†¬†¬† 02:06:58 00:37:25
38 Hommes 15 292 Rouiller K√©vin TEAM CAPTAIN     02:06:58 5¬†¬†¬†¬†¬† 02:06:58 00:37:25
39 Juniors H 3 275 Bohnet Guillaume LE LEVRON     02:07:22 5¬†¬†¬†¬†¬† 02:07:22 00:37:49
40 Hommes 16 286 Bonnard Ga√ętan LE LEVRON     02:07:23 5¬†¬†¬†¬†¬† 02:07:23 00:37:50
41 V√©t√© 2 H 2 213 Bruchez Alain LE CHABLE     02:07:57 5¬†¬†¬†¬†¬† 02:07:57 00:38:24
42 Espoirs H 5 212 Bruchez Cyril LE CHABLE     02:07:58 5¬†¬†¬†¬†¬† 02:07:58 00:38:25
43 Dames 4 236 Peeters Klaartje MECHELEN     02:09:45 5¬†¬†¬†¬†¬† 02:09:45 00:40:12
44 V√©t√© 1 H 9 279 Luisier C√©dric LA FOULEE SAILLONINTZE     02:10:52 5¬†¬†¬†¬†¬† 02:10:52 00:41:19
45 V√©t√© 3 H 1 278 Emery Daniel ST-MAURICE     02:11:41 5¬†¬†¬†¬†¬† 02:11:41 00:42:08
46 V√©t√© 1 D 2 223 Christinaz Alexandra MAHANA FOR KIDS     02:11:45 5¬†¬†¬†¬†¬† 02:11:45 00:42:12
47 Dames 5 210 Sermier C√©line SIERRE     02:12:15 5¬†¬†¬†¬†¬† 02:12:15 00:42:42
48 Espoirs H 6 274 Bohnet Julien LE LEVRON     02:13:39 5¬†¬†¬†¬†¬† 02:13:39 00:44:06
49 Hommes 17 293 Dumoulin Johny LE LEVRON     02:13:39 5¬†¬†¬†¬†¬† 02:13:39 00:44:06
50 V√©t√© 1 H 10 271 Zurcher Cedric BEVAIX     02:15:44 5¬†¬†¬†¬†¬† 02:15:44 00:46:11
51 Dames 6 243 Frossard M√©lanie FULLY     02:18:33 5¬†¬†¬†¬†¬† 02:18:33 00:49:00
52 V√©t√© 1 H 11 244 Derivaz James MARTIGNY-CROIX   01:52:24 02:18:33 5¬†¬†¬†¬†¬† 02:18:33 00:49:00
53 V√©t√© 1 D 3 295 Veri Florence LES PACCOTS 1973   02:19:35 5¬†¬†¬†¬†¬† 02:19:35 00:50:02
54 Hommes 18 239 Mugnier Gregoire SAXON     02:23:19 5¬†¬†¬†¬†¬† 02:23:19 00:53:46
55 Hommes 19 230 Tornay Th√©ophile TEAM TORNAY     02:25:05 5¬†¬†¬†¬†¬† 02:25:05 00:55:32
56 Dames 7 237 Gaillard Marie SION     02:25:05 5¬†¬†¬†¬†¬† 02:25:05 00:55:32
57 Juniors D 3 233 Troillet Alyssa LE CHABLE     02:27:53 5¬†¬†¬†¬†¬† 02:27:53 00:58:20
58 Dames 8 219 Binggeli Anja GX RACING     02:28:00 5¬†¬†¬†¬†¬† 02:28:00 00:58:27
59 V√©t√© 1 D 4 281 Nicollerat Sabine TOUTANGUEULES     02:28:50 5¬†¬†¬†¬†¬† 02:28:50 00:59:17
60 Espoirs H 7 284 Gross Loris TOUTANGUEULES     02:28:50 5¬†¬†¬†¬†¬† 02:28:50 00:59:17
61 V√©t√© 1 H 12 221 Nanchen Francois MONTHEY     02:32:37 5¬†¬†¬†¬†¬† 02:32:37 01:03:04
62 V√©t√© 1 D 5 222 Arias Christelle MONTHEY     02:32:37 5¬†¬†¬†¬†¬† 02:32:37 01:03:04
63 Espoirs D 3 276 Lattion Cynthia ORSIERES     02:36:35 5¬†¬†¬†¬†¬† 02:36:35 01:07:02
64 V√©t√© 2 D 1 218 Theux Nicole ORSIERES     02:40:08 5¬†¬†¬†¬†¬† 02:40:08 01:10:35
65 Dames 9 216 Lattion Romaine ROMAINE LATTION     02:40:10 5¬†¬†¬†¬†¬† 02:40:10 01:10:37
66 V√©t√© 1 D 6 217 Lattion Sabine ORSIERES     02:40:10 5¬†¬†¬†¬†¬† 02:40:10 01:10:37
67 Dames 10 240 Ga√ęlle Rhoner SAXON     02:41:43 5¬†¬†¬†¬†¬† 02:41:43 01:12:10
68 Espoirs H 8 296 Nicollerat Th√©o MARTIGNY 2005   02:41:50 5¬†¬†¬†¬†¬† 02:41:50 01:12:17
69 V√©t√© 1 D 7 267 Gay-Bourgeois Claudine LES VALETTES     02:41:58 5¬†¬†¬†¬†¬† 02:41:58 01:12:25
70 V√©t√© 1 D 8 266 Bourgeois Laurence VOLLEGES     02:42:01 5¬†¬†¬†¬†¬† 02:42:01 01:12:28
71 V√©t√© 2 D 2 232 Troillet Nathalie LE CHABLE     02:42:46 5¬†¬†¬†¬†¬† 02:42:46 01:13:13
72 V√©t√© 2 D 3 272 Bender Ariane TOUTANGUEULE     02:43:12 5¬†¬†¬†¬†¬† 02:43:12 01:13:39
73 V√©t√© 1 D 9 285 Nicollerat Sylvie TOUTANGUEULES     02:43:20 5¬†¬†¬†¬†¬† 02:43:20 01:13:47
74 Espoirs H 9 287 Nicollerat Simon TOUTANGUEULES     02:44:15 5¬†¬†¬†¬†¬† 02:44:15 01:14:42
75 V√©t√© 1 D 10 289 Truffer Anne COLLOMBEY     02:44:18 5¬†¬†¬†¬†¬† 02:44:18 01:14:45
76 V√©t√© 1 D 11 227 Lambert Anne PERLY     02:44:21 5¬†¬†¬†¬†¬† 02:44:21 01:14:48
77 V√©t√© 1 H 13 202 Malvaux Olivier GENEVE     02:44:32 5¬†¬†¬†¬†¬† 02:44:32 01:14:59
78 Dames 11 246 Marzolo Annick ANNICK MARZOLO     02:45:16 5¬†¬†¬†¬†¬† 02:45:16 01:15:43
79 Dames 12 220 Roduit Marika FULLY     02:45:57 5¬†¬†¬†¬†¬† 02:45:57 01:16:24
80 Dames 13 203 Barberis Ang√©lique GENEVE     02:46:51 5¬†¬†¬†¬†¬† 02:46:51 01:17:18
81 Dames 14 226 Roduit Mathilde ALP'SPORTS THERAPIES     02:47:41 5¬†¬†¬†¬†¬† 02:47:41 01:18:08
82 V√©t√© 2 H 3 265 Vaux Fabrice VILLENEUVE     02:52:30 5¬†¬†¬†¬†¬† 02:52:30 01:22:57
83 Dames 15 282 Buono Christine FROIDEVILLE     03:09:19 5¬†¬†¬†¬†¬† 03:09:19 01:39:46
84 Hommes 20 283 Buono Ludovic FROIDEVILLE     03:09:19 5¬†¬†¬†¬†¬† 03:09:19 01:39:46
85 V√©t√© 2 D 4 258 Lattion Ariane LIDDES     03:11:58 5¬†¬†¬†¬†¬† 03:11:58 01:42:25
86 V√©t√© 2 H 4 259 Lattion St√©phane LIDDES     03:11:58 5¬†¬†¬†¬†¬† 03:11:58 01:42:25
87 Dames 16 245 Besse Aur√©lie AURELIE BESSE     03:12:48 5¬†¬†¬†¬†¬† 03:12:48 01:43:15
88 Dames 17 256 Nathalie Nicollerat TOUTANGUEULES     03:31:55 5¬†¬†¬†¬†¬† 03:31:55 02:02:22
89 V√©t√© 2 H 5 255 Nicollerat Marc TOUTANGUEULES     03:31:59 5¬†¬†¬†¬†¬† 03:31:59 02:02:26
90 Dames 18 242 Baeyens Catherine GEEL     03:33:08 5¬†¬†¬†¬†¬† 03:33:08 02:03:35
  V√©t√© 2 D   200 Grant Roxane MAHANA FOR KIDS       0¬†¬†¬†¬†¬† 00:00:00  
  V√©t√© 2 H   201 Terrapon Patrick MAHANA FOR KIDS       0¬†¬†¬†¬†¬† 00:00:00  
  Dames   205 Desfayes Natacha RUNNING BADGERS       0¬†¬†¬†¬†¬† 00:00:00  
  V√©t√© 1 H   206 Desfayes S√©bastien RUNNING BADGERS       0¬†¬†¬†¬†¬† 00:00:00  
  Dames   207 Elena Lipova MOSCOW       0¬†¬†¬†¬†¬† 00:00:00  
  Dames   208 Magne Marine SION       0¬†¬†¬†¬†¬† 00:00:00  
  V√©t√© 2 D   209 Gaudard Anne-Lise TEAM MAHANA       0¬†¬†¬†¬†¬† 00:00:00  
  Dames   229 Tornay Agathe TEAM TORNAY       0¬†¬†¬†¬†¬† 00:00:00  
  V√©t√© 1 H   238 Dupont Fr√©d√©ric VOUVRY       0¬†¬†¬†¬†¬† 00:00:00  
  V√©t√© 2 H   260 Zanello Patrick PATRICK ZANELLO       0¬†¬†¬†¬†¬† 00:00:00  
Scratch Cat√©gorie Pos.cat. Dos. Nom pr√©nom Club / Ville Ann√©e Challand Arriv√©e Contr√īle Temps Ecart Statut
Refresh Refresh

Auto refresh interval:

Légende statut: = En course, = Abandon (DNF), = Arrivé, = Pas parti (DNS).
Dernière mise à jour: Dimanche 9 septembre 2018 à 18:41

Les résultats sont fournis pour une utilisation personnelle uniquement. L'utilisation commerciale, rediffusion, en tout ou en partie, et, ou réimpression est interdite.

Retour (séléction de la course)